Time;durP1;ratioP1;P1;durP2;ratioP2;P2;SDS_P1;SDS_P2;PMS_P1;PMS_P2;Temp;Humidity;BMP_temperature;BMP_pressure;BME280_temperature;BME280_humidity;BME280_pressure;Samples;Min_cycle;Max_cycle;Signal;HPM_P1;HPM_P2
2023/08/15 00:00:17;;;;;;;10.02;6.50;;;563.70;2432.00;;;;;;4936521;29;20035;-82
2023/08/15 00:02:42;;;;;;;9.57;6.40;;;563.80;2432.00;;;;;;4936525;29;20051;-83
2023/08/15 00:05:08;;;;;;;12.73;7.75;;;563.80;2432.00;;;;;;4936423;29;20471;-83
2023/08/15 00:07:34;;;;;;;11.38;7.15;;;563.70;2432.00;;;;;;4937872;29;20042;-82
2023/08/15 00:10:01;;;;;;;12.32;7.13;;;588.80;2432.00;;;;;;4936338;29;20208;-82
2023/08/15 00:12:26;;;;;;;7.95;6.55;;;563.70;2432.00;;;;;;4936491;29;20055;-83
2023/08/15 00:14:52;;;;;;;10.77;6.65;;;563.70;2432.00;;;;;;4937615;29;20066;-83
2023/08/15 00:17:18;;;;;;;10.43;6.68;;;563.60;2432.00;;;;;;4936032;29;20070;-84
2023/08/15 00:19:44;;;;;;;16.23;6.50;;;563.70;2432.00;;;;;;4937465;29;20083;-83
2023/08/15 00:22:11;;;;;;;12.02;6.75;;;563.70;2432.00;;;;;;4935732;29;20052;-83
2023/08/15 00:24:37;;;;;;;9.20;6.60;;;563.70;2432.00;;;;;;4935998;29;20031;-84
2023/08/15 00:27:02;;;;;;;10.55;6.72;;;563.70;2432.00;;;;;;4936991;29;20035;-82
2023/08/15 00:29:28;;;;;;;11.95;6.47;;;563.70;2432.00;;;;;;4935806;29;20460;-82
2023/08/15 00:31:54;;;;;;;10.70;6.07;;;563.80;2432.00;;;;;;4937215;29;20110;-82
2023/08/15 00:34:33;;;;;;;8.07;5.93;;;563.80;2432.00;;;;;;4935943;29;20031;-86
2023/08/15 00:36:59;;;;;;;10.90;6.15;;;563.20;2432.00;;;;;;4935274;29;20032;-82
2023/08/15 00:39:25;;;;;;;12.90;5.97;;;563.80;2432.00;;;;;;4935122;29;20116;-82
2023/08/15 00:41:51;;;;;;;13.13;6.32;;;563.70;2432.00;;;;;;4935167;29;20032;-82
2023/08/15 00:44:16;;;;;;;12.90;6.15;;;563.70;2432.00;;;;;;4934217;29;20035;-82
2023/08/15 00:46:43;;;;;;;11.85;5.85;;;563.70;2432.00;;;;;;4935081;29;20036;-83
2023/08/15 00:49:10;;;;;;;9.65;6.03;;;563.70;2432.00;;;;;;4935111;29;20024;-82
2023/08/15 00:51:36;;;;;;;11.27;6.32;;;563.70;2432.00;;;;;;4934517;29;20083;-81
2023/08/15 00:54:02;;;;;;;8.25;6.30;;;563.80;2432.00;;;;;;4936531;29;20036;-82
2023/08/15 00:56:28;;;;;;;8.43;5.78;;;563.70;2432.00;;;;;;4934827;29;20135;-83
2023/08/15 00:58:54;;;;;;;8.23;5.43;;;563.70;2432.00;;;;;;4934911;29;20031;-81
2023/08/15 01:01:22;;;;;;;7.60;5.65;;;563.70;2432.00;;;;;;4934763;29;20082;-82
2023/08/15 01:03:49;;;;;;;8.85;5.43;;;563.70;2432.00;;;;;;4934584;29;20067;-82
2023/08/15 01:06:15;;;;;;;8.13;5.97;;;563.60;2432.00;;;;;;4934589;29;20062;-82
2023/08/15 01:08:41;;;;;;;10.95;6.20;;;563.70;2432.00;;;;;;4935700;29;20488;-82
2023/08/15 01:11:07;;;;;;;7.97;5.75;;;563.60;2432.00;;;;;;4935752;29;20035;-81
2023/08/15 01:13:44;;;;;;;14.20;6.20;;;563.60;2432.00;;;;;;4934621;29;20024;-82
2023/08/15 01:16:24;;;;;;;9.25;6.13;;;563.50;2432.00;;;;;;4934695;29;20042;-82
2023/08/15 01:18:58;;;;;;;9.98;6.07;;;563.50;2432.00;;;;;;4934557;29;20032;-81
2023/08/15 01:21:28;;;;;;;10.60;6.30;;;;;;;;;;4934498;29;20023;-82
2023/08/15 01:23:57;;;;;;;8.88;5.82;;;;;;;;;;4934657;29;20020;-82
2023/08/15 01:26:23;;;;;;;7.13;5.03;;;;;;;;;;4935543;29;20024;-82
2023/08/15 01:28:49;;;;;;;9.02;6.88;;;;;;;;;;4935328;29;20051;-82
2023/08/15 01:31:19;;;;;;;8.13;5.88;;;;;;;;;;4935882;29;20035;-80
2023/08/15 01:33:51;;;;;;;7.45;5.82;;;;;;;;;;4934565;29;20024;-81
2023/08/15 01:36:22;;;;;;;6.95;5.78;;;;;;;;;;4934584;29;20024;-82
2023/08/15 01:39:06;;;;;;;13.45;5.88;;;;;;;;;;4934111;29;20032;-82
2023/08/15 01:41:33;;;;;;;10.07;5.72;;;;;;;;;;4934404;29;20028;-82
2023/08/15 01:44:00;;;;;;;7.65;5.90;;;;;;;;;;4934257;29;20034;-81
2023/08/15 01:46:26;;;;;;;7.82;5.82;;;;;;;;;;4935576;29;20475;-81
2023/08/15 01:48:52;;;;;;;7.35;5.90;;;;;;;;;;4934345;29;20156;-81
2023/08/15 01:51:18;;;;;;;7.57;5.85;;;;;;;;;;4933836;29;20055;-81
2023/08/15 01:53:44;;;;;;;9.45;6.30;;;;;;;;;;4934360;29;20055;-81
2023/08/15 01:56:12;;;;;;;7.47;5.70;;;;;;;;;;4938057;29;20483;-83
2023/08/15 01:58:39;;;;;;;6.88;5.63;;;;;;;;;;4938199;29;20028;-82
2023/08/15 02:01:05;;;;;;;8.48;6.10;;;;;;;;;;4937670;29;20027;-83
2023/08/15 02:03:31;;;;;;;8.88;6.00;;;;;;;;;;4937840;29;20376;-82
2023/08/15 02:05:57;;;;;;;8.77;5.90;;;;;;;;;;4937776;29;20032;-81
2023/08/15 02:08:23;;;;;;;10.00;6.22;;;;;;;;;;4937482;29;20028;-82
2023/08/15 02:10:50;;;;;;;9.63;5.82;;;;;;;;;;4937765;29;20646;-82
2023/08/15 02:13:16;;;;;;;7.68;5.68;;;;;;;;;;4937691;29;20479;-82
2023/08/15 02:15:42;;;;;;;7.82;5.60;;;;;;;;;;4937895;29;20031;-83
2023/08/15 02:18:08;;;;;;;8.45;5.85;;;;;;;;;;4938454;29;20423;-82
2023/08/15 02:20:34;;;;;;;9.35;6.07;;;;;;;;;;4938383;29;20024;-83
2023/08/15 02:23:00;;;;;;;7.68;6.18;;;;;;;;;;4938335;29;20028;-82
2023/08/15 02:25:26;;;;;;;9.18;5.63;;;;;;;;;;4938547;29;20031;-83
2023/08/15 02:27:52;;;;;;;9.07;6.32;;;;;;;;;;4938049;29;20063;-82
2023/08/15 02:30:19;;;;;;;8.00;6.05;;;;;;;;;;4938404;29;20119;-81
2023/08/15 02:32:45;;;;;;;8.25;5.85;;;;;;;;;;4938361;29;20472;-81
2023/08/15 02:35:13;;;;;;;11.30;6.00;;;;;;;;;;4937928;29;20046;-82
2023/08/15 02:37:39;;;;;;;9.43;6.15;;;;;;;;;;4939731;29;20027;-81
2023/08/15 02:40:06;;;;;;;6.95;5.72;;;;;;;;;;4938101;29;20127;-82
2023/08/15 02:42:33;;;;;;;9.70;6.25;;;;;;;;;;4939439;29;20028;-82
2023/08/15 02:44:59;;;;;;;7.78;6.15;;;;;;;;;;4937991;29;20083;-83
2023/08/15 02:47:25;;;;;;;7.55;6.25;;;;;;;;;;4938000;29;20031;-83
2023/08/15 02:49:51;;;;;;;7.50;6.13;;;;;;;;;;4937483;29;20416;-82
2023/08/15 02:52:17;;;;;;;7.30;5.65;;;;;;;;;;4938059;29;20023;-81
2023/08/15 02:54:43;;;;;;;7.93;6.35;;;;;;;;;;4937736;29;20060;-79
2023/08/15 02:57:10;;;;;;;8.77;6.10;;;;;;;;;;4937513;29;20058;-80
2023/08/15 02:59:36;;;;;;;10.60;6.13;;;;;;;;;;4937940;29;20111;-81
2023/08/15 03:02:03;;;;;;;9.52;6.40;;;;;;;;;;4937653;29;20031;-81
2023/08/15 03:04:29;;;;;;;7.35;5.60;;;;;;;;;;4937504;29;20384;-80
2023/08/15 03:06:55;;;;;;;8.73;5.93;;;;;;;;;;4937026;29;20039;-80
2023/08/15 03:09:22;;;;;;;9.10;5.65;;;;;;;;;;4937496;29;20178;-79
2023/08/15 03:11:48;;;;;;;7.78;6.45;;;;;;;;;;4937571;29;20024;-80
2023/08/15 03:14:14;;;;;;;7.43;5.78;;;;;;;;;;4937507;29;20040;-80
2023/08/15 03:16:40;;;;;;;8.57;6.65;;;;;;;;;;4938463;29;20027;-82
2023/08/15 03:19:06;;;;;;;7.55;6.22;;;;;;;;;;4938447;29;20020;-79
2023/08/15 03:21:32;;;;;;;7.95;6.50;;;;;;;;;;4937420;29;20039;-79
2023/08/15 03:23:58;;;;;;;9.35;5.85;;;;;;;;;;4937080;29;20030;-79
2023/08/15 03:26:25;;;;;;;11.00;6.50;;;;;;;;;;4938494;29;20042;-80
2023/08/15 03:28:52;;;;;;;7.50;5.97;;;;;;;;;;4937332;29;20471;-79
2023/08/15 03:31:18;;;;;;;10.52;5.80;;;;;;;;;;4937057;29;20024;-80
2023/08/15 03:33:44;;;;;;;12.27;6.57;;;;;;;;;;4937229;29;20447;-80
2023/08/15 03:36:10;;;;;;;7.88;5.82;;;;;;;;;;4937151;29;20036;-79
2023/08/15 03:38:36;;;;;;;10.70;6.00;;;;;;;;;;4936955;29;20028;-80
2023/08/15 03:41:03;;;;;;;11.18;6.40;;;;;;;;;;4937110;29;20482;-81
2023/08/15 03:43:30;;;;;;;29.67;9.35;;;;;;;;;;4937076;29;20027;-82
2023/08/15 03:45:56;;;;;;;11.23;6.85;;;;;;;;;;4937832;29;20379;-82
2023/08/15 03:48:22;;;;;;;8.48;6.03;;;;;;;;;;4938045;29;20035;-79
2023/08/15 03:50:49;;;;;;;13.00;6.50;;;;;;;;;;4936453;29;20059;-80
2023/08/15 03:53:15;;;;;;;8.95;6.82;;;;;;;;;;4936469;29;20028;-80
2023/08/15 03:55:41;;;;;;;6.72;6.00;;;;;;;;;;4936899;29;20115;-80
2023/08/15 03:58:07;;;;;;;9.07;5.97;;;;;;;;;;4936957;29;20028;-82
2023/08/15 04:00:33;;;;;;;9.68;6.32;;;;;;;;;;4938422;29;20140;-79
2023/08/15 04:02:59;;;;;;;8.70;6.45;;;;;;;;;;4940627;29;20027;-80
2023/08/15 04:05:26;;;;;;;8.57;6.22;;;;;;;;;;4940449;29;20031;-80
2023/08/15 04:07:52;;;;;;;8.13;6.47;;;;;;;;;;4940339;29;20066;-80
2023/08/15 04:10:18;;;;;;;9.02;7.45;;;;;;;;;;4938010;29;20027;-80
2023/08/15 04:12:45;;;;;;;8.45;6.88;;;;;;;;;;4936166;29;20039;-80
2023/08/15 04:15:11;;;;;;;10.20;6.32;;;;;;;;;;4937588;29;20074;-80
2023/08/15 04:17:37;;;;;;;7.50;5.88;;;;;;;;;;4935495;29;20031;-80
2023/08/15 04:20:05;;;;;;;10.43;6.50;;;;;;;;;;4936298;29;20050;-81
2023/08/15 04:22:31;;;;;;;12.68;6.97;;;;;;;;;;4936248;29;20163;-80
2023/08/15 04:24:57;;;;;;;12.07;6.93;;;;;;;;;;4935995;29;20032;-81
2023/08/15 04:27:24;;;;;;;10.13;6.80;;;;;;;;;;4936134;29;20361;-80
2023/08/15 04:29:50;;;;;;;8.57;6.85;;;;;;;;;;4936984;29;20024;-79
2023/08/15 04:32:16;;;;;;;9.55;6.65;;;;;;;;;;4936132;29;20099;-80
2023/08/15 04:34:43;;;;;;;13.60;6.63;;;;;;;;;;4935580;29;20063;-81
2023/08/15 04:37:09;;;;;;;10.82;6.63;;;;;;;;;;4935262;29;20079;-80
2023/08/15 04:39:35;;;;;;;15.13;6.97;;;;;;;;;;4935055;29;20027;-80
2023/08/15 04:42:01;;;;;;;9.57;6.45;;;;;;;;;;4934830;29;20032;-79
2023/08/15 04:44:27;;;;;;;9.88;7.00;;;;;;;;;;4936069;29;20024;-81
2023/08/15 04:46:53;;;;;;;10.18;6.50;;;;;;;;;;4934974;29;20555;-81
2023/08/15 04:49:19;;;;;;;13.10;7.00;;;;;;;;;;4934673;29;20051;-80
2023/08/15 04:51:45;;;;;;;17.83;7.43;;;;;;;;;;4934595;29;20051;-80
2023/08/15 04:54:12;;;;;;;11.52;6.47;;;;;;;;;;4934942;29;20496;-80
2023/08/15 04:56:38;;;;;;;9.23;6.78;;;;;;;;;;4935812;29;20078;-81
2023/08/15 04:59:04;;;;;;;12.90;7.18;;;;;;;;;;4934879;29;20038;-80
2023/08/15 05:01:30;;;;;;;16.15;8.07;;;;;;;;;;4934501;29;20039;-81
2023/08/15 05:03:56;;;;;;;12.15;6.35;;;;;;;;;;4934699;29;20032;-81
2023/08/15 05:06:22;;;;;;;10.75;7.65;;;;;;;;;;4934578;29;20399;-81
2023/08/15 05:08:48;;;;;;;14.07;7.07;;;;;;;;;;4934335;29;20082;-80
2023/08/15 05:11:14;;;;;;;12.90;7.78;;;;;;;;;;4934716;29;20055;-81
2023/08/15 05:13:40;;;;;;;8.27;6.63;;;;;;;;;;4934610;29;20046;-80
2023/08/15 05:16:06;;;;;;;8.25;6.22;;;;;;;;;;4934220;29;20023;-80
2023/08/15 05:18:33;;;;;;;7.50;6.07;;;;;;;;;;4934315;29;20460;-81
2023/08/15 05:20:59;;;;;;;13.05;7.20;;;;;;;;;;4934546;29;20035;-80
2023/08/15 05:23:25;;;;;;;10.98;7.40;;;;;;;;;;4934408;29;20055;-81
2023/08/15 05:25:51;;;;;;;13.23;7.10;;;;;;;;;;4934447;29;20023;-81
2023/08/15 05:28:17;;;;;;;13.45;7.45;;;;;;;;;;4934433;29;20480;-81
2023/08/15 05:30:43;;;;;;;9.90;6.15;;;;;;;;;;4940333;29;20075;-80
2023/08/15 05:33:10;;;;;;;10.73;6.97;;;;;;;;;;4940834;29;20020;-82
2023/08/15 05:35:36;;;;;;;10.23;6.32;;;;;;;;;;4959367;29;20485;-82
2023/08/15 05:38:02;;;;;;;12.23;6.68;;;;;;;;;;4959694;28;20031;-81
2023/08/15 05:40:29;;;;;;;11.52;6.60;;;;;;;;;;4959905;29;20035;-81
2023/08/15 05:42:56;;;;;;;13.05;6.90;;;;;;;;;;4960170;28;20051;-81
2023/08/15 05:45:22;;;;;;;9.98;6.78;;;;;;;;;;4959560;29;20027;-82
2023/08/15 05:47:48;;;;;;;12.65;6.70;;;;;;;;;;4959887;29;20035;-80
2023/08/15 05:50:14;;;;;;;14.18;6.40;;;;;;;;;;4959340;28;20062;-82
2023/08/15 05:52:40;;;;;;;11.13;6.45;;;;;;;;;;4959798;28;20040;-81
2023/08/15 05:55:06;;;;;;;7.80;6.20;;;;;;;;;;4959985;29;20027;-81
2023/08/15 05:57:32;;;;;;;10.85;7.00;;;;;;;;;;4959401;29;20031;-82
2023/08/15 05:59:59;;;;;;;12.73;6.70;;;;;;;;;;4959776;28;20028;-81
2023/08/15 06:02:25;;;;;;;12.32;6.45;;;;;;;;;;4959562;29;20026;-82
2023/08/15 06:04:51;;;;;;;12.57;6.60;;;;;;;;;;4960678;28;20027;-81
2023/08/15 06:07:17;;;;;;;12.05;7.30;;;;;;;;;;4959666;29;20122;-81
2023/08/15 06:09:44;;;;;;;9.38;6.50;;;;;;;;;;4959748;28;20034;-83
2023/08/15 06:12:10;;;;;;;13.55;7.13;;;;;;;;;;4959336;29;20426;-83
2023/08/15 06:14:37;;;;;;;14.45;7.35;;;;;;;;;;4959480;29;20027;-83
2023/08/15 06:17:04;;;;;;;14.32;6.55;;;;;;;;;;4959477;29;20031;-82
2023/08/15 06:19:31;;;;;;;15.20;6.80;;;;;;;;;;4959188;29;20110;-82
2023/08/15 06:21:57;;;;;;;17.02;7.95;;;;;;;;;;4959401;28;20027;-83
2023/08/15 06:24:23;;;;;;;15.82;7.05;;;;;;;;;;4959416;29;20491;-84
2023/08/15 06:26:49;;;;;;;16.33;7.38;;;;;;;;;;4959264;28;20118;-81
2023/08/15 06:29:15;;;;;;;9.35;6.63;;;;;;;;;;4959414;29;20026;-83
2023/08/15 06:31:41;;;;;;;17.23;6.82;;;;;;;;;;4959275;29;20472;-82
2023/08/15 06:34:07;;;;;;;16.80;6.28;;;;;;;;;;4958949;29;20034;-83
2023/08/15 06:36:34;;;;;;;14.80;6.82;;;;;;;;;;4959256;28;20474;-83
2023/08/15 06:39:00;;;;;;;8.10;5.85;;;;;;;;;;4959307;29;20027;-83
2023/08/15 06:41:26;;;;;;;14.68;6.53;;;;;;;;;;4956063;28;20491;-82
2023/08/15 06:43:52;;;;;;;11.60;6.85;;;;;;;;;;4956196;29;20122;-82
2023/08/15 06:46:18;;;;;;;12.25;6.63;;;;;;;;;;4955774;29;20027;-83
2023/08/15 06:48:45;;;;;;;11.43;7.07;;;;;;;;;;4956249;29;20031;-82
2023/08/15 06:51:11;;;;;;;19.45;6.68;;;;;;;;;;4955735;29;20043;-83
2023/08/15 06:53:40;;;;;;;10.82;7.07;;;;;;;;;;4955770;29;20020;-82
2023/08/15 06:56:06;;;;;;;15.90;6.07;;;;;;;;;;4956036;29;20035;-82
2023/08/15 06:58:32;;;;;;;17.20;8.05;;;;;;;;;;4955944;29;20042;-82
2023/08/15 07:01:00;;;;;;;8.95;6.07;;;;;;;;;;4955777;29;20027;-82
2023/08/15 07:03:26;;;;;;;7.20;6.07;;;;;;;;;;4956157;29;20428;-82
2023/08/15 07:05:52;;;;;;;9.82;5.55;;;;;;;;;;4955360;29;20027;-82
2023/08/15 07:08:19;;;;;;;9.90;5.30;;;;;;;;;;4955700;29;20395;-84
2023/08/15 07:10:45;;;;;;;11.68;4.70;;;;;;;;;;4955861;29;20020;-83
2023/08/15 07:13:11;;;;;;;9.10;4.90;;;;;;;;;;4955756;29;20019;-83
2023/08/15 07:15:37;;;;;;;10.35;6.57;;;;;;;;;;4955551;29;20391;-82
2023/08/15 07:18:04;;;;;;;9.77;5.72;;;;;;;;;;4956836;28;20024;-84
2023/08/15 07:20:30;;;;;;;7.70;4.53;;;;;;;;;;4955657;29;20024;-83
2023/08/15 07:22:56;;;;;;;16.27;5.93;;;;;;;;;;4956866;28;20030;-83
2023/08/15 07:25:22;;;;;;;8.82;4.63;;;;;;;;;;4955668;29;20512;-83
2023/08/15 07:27:48;;;;;;;9.43;4.63;;;;;;;;;;4955898;29;20383;-84
2023/08/15 07:30:15;;;;;;;7.20;4.50;;;;;;;;;;4956099;28;20031;-82
2023/08/15 07:32:42;;;;;;;7.57;4.20;;;;;;;;;;4955351;29;20023;-84
2023/08/15 07:35:08;;;;;;;6.65;4.50;;;;;;;;;;4955891;29;20030;-83
2023/08/15 07:37:34;;;;;;;10.80;4.65;;;;;;;;;;4955248;29;20495;-84
2023/08/15 07:40:05;;;;;;;10.00;5.10;;;;;;;;;;4956616;28;20102;-83
2023/08/15 07:42:32;;;;;;;12.07;4.07;;;;;;;;;;4955428;29;20368;-83
2023/08/15 07:44:58;;;;;;;7.30;3.97;;;;;;;;;;4955224;29;20050;-82
2023/08/15 07:47:25;;;;;;;6.53;4.30;;;;;;;;;;4955404;29;20034;-81
2023/08/15 07:50:11;;;;;;;8.10;4.03;;;;;;;;;;4954527;29;20031;-81
2023/08/15 07:52:37;;;;;;;8.30;4.82;;;;;;;;;;4954756;28;20066;-82
2023/08/15 07:55:03;;;;;;;9.27;5.32;;;;;;;;;;4954904;29;20209;-81
2023/08/15 07:57:29;;;;;;;8.95;6.03;;;;;;;;;;4954563;29;20475;-81
2023/08/15 07:59:55;;;;;;;10.20;5.70;;;;;;;;;;4954789;29;20174;-80
2023/08/15 08:02:21;;;;;;;9.38;5.38;;;;;;;;;;4954799;29;20049;-82
2023/08/15 08:04:47;;;;;;;26.52;19.02;;;;;;;;;;4955772;28;20456;-83
2023/08/15 08:07:13;;;;;;;12.95;7.63;;;;;;;;;;4954921;29;20034;-80
2023/08/15 08:09:39;;;;;;;15.10;7.72;;;;;;;;;;4954679;29;20023;-82
2023/08/15 08:12:06;;;;;;;14.13;9.68;;;;;;;;;;4954097;29;20459;-81
2023/08/15 08:14:32;;;;;;;6.53;4.97;;;;;;;;;;4954611;29;20450;-81
2023/08/15 08:16:58;;;;;;;11.35;6.88;;;;;;;;;;4954817;29;20030;-82
2023/08/15 08:19:24;;;;;;;11.68;6.35;;;;;;;;;;4954270;29;20058;-81
2023/08/15 08:21:51;;;;;;;25.65;16.15;;;;;;;;;;4954595;29;20030;-81
2023/08/15 08:24:17;;;;;;;10.13;5.75;;;;;;;;;;4954251;29;20051;-82
2023/08/15 08:26:43;;;;;;;8.80;5.43;;;;;;;;;;4955560;28;20027;-82
2023/08/15 08:29:11;;;;;;;7.65;5.07;;;;;;;;;;4955456;28;20038;-81
2023/08/15 08:31:41;;;;;;;10.38;5.65;;;;;;;;;;4954118;29;20023;-82
2023/08/15 08:34:13;;;;;;;8.93;6.18;;;;;;;;;;4954218;29;20034;-82
2023/08/15 08:36:39;;;;;;;10.25;5.63;;;;;;;;;;4954259;29;20042;-83
2023/08/15 08:39:07;;;;;;;10.30;6.22;;;;;;;;;;4953814;29;20027;-82
2023/08/15 08:41:34;;;;;;;8.85;5.72;;;;;;;;;;4954215;29;20388;-81
2023/08/15 08:44:02;;;;;;;9.38;5.43;;;;;;;;;;4953950;29;20019;-81
2023/08/15 08:46:29;;;;;;;9.32;5.80;;;;;;;;;;4954088;29;20035;-82
2023/08/15 08:48:59;;;;;;;9.18;6.45;;;;;;;;;;4954801;29;20106;-82
2023/08/15 08:51:25;;;;;;;10.52;6.80;;;;;;;;;;4953678;29;20047;-83
2023/08/15 08:53:52;;;;;;;16.77;10.05;;;;;;;;;;4953863;29;20027;-82
2023/08/15 08:56:18;;;;;;;9.70;6.75;;;;;;;;;;4954021;29;20027;-83
2023/08/15 08:58:58;;;;;;;12.30;6.40;;;;;;;;;;4953857;29;20430;-82
2023/08/15 09:01:24;;;;;;;9.82;5.93;;;;;;;;;;4953602;29;20027;-81
2023/08/15 09:03:50;;;;;;;14.27;7.13;;;;;;;;;;4954370;28;20046;-81
2023/08/15 09:06:16;;;;;;;11.13;8.32;;;;;;;;;;4953467;29;20041;-83
2023/08/15 09:08:42;;;;;;;10.40;5.97;;;;;;;;;;4953742;29;20583;-83
2023/08/15 09:11:09;;;;;;;7.45;5.40;;;;;;;;;;4953501;29;20015;-80
2023/08/15 09:13:35;;;;;;;13.27;5.63;;;;;;;;;;4953315;29;20027;-79
2023/08/15 09:16:04;;;;;;;11.27;6.70;;;;;;;;;;4953578;29;20034;-83
2023/08/15 09:18:33;;;;;;;19.15;8.10;;;;;;;;;;4953503;29;20122;-83
2023/08/15 09:20:59;;;;;;;13.48;7.85;;;;;;;;;;4953444;29;20096;-84
2023/08/15 09:23:25;;;;;;;13.40;6.45;;;;;;;;;;4954898;28;20038;-85
2023/08/15 09:25:55;;;;;;;9.65;7.05;;;;;;;;;;4953668;29;20126;-84
2023/08/15 09:28:21;;;;;;;15.40;6.95;;;;;;;;;;4953944;29;20145;-83
2023/08/15 09:30:52;;;;;;;9.70;6.88;;;;;;;;;;4954886;28;20019;-86
2023/08/15 09:33:18;;;;;;;9.82;6.70;;;;;;;;;;4953914;29;20146;-85
2023/08/15 09:35:47;;;;;;;10.35;6.78;;;;;;;;;;4953301;29;20071;-83
2023/08/15 09:38:14;;;;;;;10.40;7.10;;;;;;;;;;4953876;28;20554;-84
2023/08/15 09:40:43;;;;;;;9.25;6.35;;;;;;;;;;4955066;28;20482;-87
2023/08/15 09:43:15;;;;;;;14.75;6.85;;;;;;;;;;4953650;28;20463;-87
2023/08/15 09:45:41;;;;;;;12.53;7.73;;;;;;;;;;4953758;28;20122;-86
2023/08/15 09:48:08;;;;;;;15.48;7.60;;;;;;;;;;4953683;28;20039;-86
2023/08/15 09:50:35;;;;;;;11.07;7.22;;;;;;;;;;4968953;28;20094;-84
2023/08/15 09:53:01;;;;;;;12.38;8.05;;;;;;;;;;4953672;28;20530;-85
2023/08/15 09:55:28;;;;;;;8.43;6.50;;;;;;;;;;4953543;28;20039;-86
2023/08/15 09:57:54;;;;;;;7.57;5.60;;;;;;;;;;4954043;28;20027;-82
2023/08/15 10:00:20;;;;;;;14.13;7.07;;;;;;;;;;4951714;28;20031;-81
2023/08/15 10:02:48;;;;;;;12.63;6.28;;;;;;;;;;4953227;28;20106;-87
2023/08/15 10:05:17;;;;;;;10.35;6.13;;;;;;;;;;4953135;28;20027;-83
2023/08/15 10:07:44;;;;;;;8.30;5.35;;;;;;;;;;4953760;28;20086;-86
2023/08/15 10:10:11;;;;;;;8.88;7.18;;;;;;;;;;4953432;28;20059;-82
2023/08/15 10:12:38;;;;;;;13.50;6.80;;;;;;;;;;4953583;28;20039;-87
2023/08/15 10:15:05;;;;;;;8.90;5.93;;;;;;;;;;4953583;28;20151;-83
2023/08/15 10:17:31;;;;;;;7.90;5.85;;;;;;;;;;4956268;28;20483;-86
2023/08/15 10:20:13;;;;;;;11.18;6.45;;;;;;;;;;4957145;28;20031;-83
2023/08/15 10:22:39;;;;;;;8.35;5.53;;;;;;;;;;4957589;28;20023;-87
2023/08/15 10:25:20;;;;;;;9.73;6.22;;;;;;;;;;4957831;28;20031;-85
2023/08/15 10:27:50;;;;;;;13.40;7.13;;;;;;;;;;4957412;28;20090;-84
2023/08/15 10:30:41;;;;;;;11.80;6.60;;;;;;;;;;4956720;28;20019;-85
2023/08/15 10:33:15;;;;;;;9.85;5.50;;;;;;;;;;4957132;28;20019;-83
2023/08/15 10:35:56;;;;;;;10.20;6.25;;;;;;;;;;4956390;28;20119;-82
2023/08/15 10:38:28;;;;;;;7.50;5.32;;;;;;;;;;4955997;28;20139;-83
2023/08/15 10:40:54;;;;;;;;;;;;;;;;;;4956514;28;20131;-82
2023/08/15 10:43:24;;;;;;;8.10;5.15;;;;;;;;;;4956132;28;19957;-81
2023/08/15 10:45:52;;;;;;;10.10;5.38;;;;;;;;;;4955838;28;20027;-82
2023/08/15 10:48:40;;;;;;;6.97;5.20;;;;;;;;;;4956026;28;20216;-82
2023/08/15 10:51:15;;;;;;;8.95;5.15;;;;;;;;;;4955694;28;20510;-81
2023/08/15 10:53:41;;;;;;;7.38;5.43;;;;;;;;;;4955999;28;20043;-84
2023/08/15 10:56:09;;;;;;;8.65;5.35;;;;;;;;;;4956281;28;20399;-85
2023/08/15 10:58:35;;;;;;;11.18;4.93;;;;;;;;;;4956062;28;20478;-81
2023/08/15 11:01:02;;;;;;;7.50;5.43;;;;;;;;;;4956240;28;20028;-82
2023/08/15 11:03:28;;;;;;;9.88;5.50;;;;;;;;;;4956121;28;20493;-83
2023/08/15 11:06:05;;;;;;;6.82;5.05;;;;;;;;;;4957033;28;20031;-84
2023/08/15 11:08:31;;;;;;;7.32;5.15;;;;;;;;;;4957671;28;20027;-84
2023/08/15 11:10:57;;;;;;;6.78;5.70;;;;;;;;;;4956137;28;20391;-83
2023/08/15 11:13:23;;;;;;;10.55;6.53;;;;;;;;;;4955958;28;20118;-84
2023/08/15 11:15:50;;;;;;;14.15;6.75;;;;;;;;;;4955894;28;20031;-83
2023/08/15 11:18:23;;;;;;;10.20;6.47;;;;;;;;;;4956033;28;20023;-85
2023/08/15 11:20:51;;;;;;;11.63;6.45;;;;;;;;;;4955952;28;20070;-82
2023/08/15 11:23:18;;;;;;;8.25;6.15;;;;;;;;;;4955966;28;20475;-83
2023/08/15 11:25:45;;;;;;;10.93;7.30;;;;;;;;;;4955724;28;20031;-84
2023/08/15 11:28:11;;;;;;;7.35;5.93;;;;;;;;;;4955072;28;20031;-83
2023/08/15 11:30:37;;;;;;;10.55;6.70;;;;;;;;;;4955802;28;20027;-84
2023/08/15 11:33:03;;;;;;;9.15;6.35;;;;;;;;;;4956229;28;20027;-88
2023/08/15 11:35:29;;;;;;;10.60;7.07;;;;;;;;;;4956825;28;20055;-84
2023/08/15 11:37:55;;;;;;;8.77;6.45;;;;;;;;;;4956016;28;20023;-85
2023/08/15 11:40:22;;;;;;;9.32;7.22;;;;;;;;;;4955606;28;20023;-83
2023/08/15 11:42:49;;;;;;;8.75;6.28;;;;;;;;;;4955810;28;20414;-84
2023/08/15 11:45:15;;;;;;;8.15;6.43;;;;;;;;;;4955478;28;20031;-83
2023/08/15 11:47:59;;;;;;;8.98;6.53;;;;;;;;;;4955221;28;20031;-83
2023/08/15 11:50:29;;;;;;;10.93;6.80;;;;;;;;;;4955135;28;20047;-85
2023/08/15 11:52:56;;;;;;;10.20;6.20;;;;;;;;;;4955594;28;20030;-87
2023/08/15 11:55:23;;;;;;;10.98;6.28;;;;;;;;;;4955741;28;20038;-84
2023/08/15 11:57:50;;;;;;;8.70;6.18;;;;;;;;;;4955456;28;20024;-84
2023/08/15 12:00:21;;;;;;;11.57;6.53;;;665.70;2432.00;;;;;;4955206;28;20047;-83
2023/08/15 12:02:50;;;;;;;9.00;6.28;;;;;;;;;;4955253;29;20027;-85
2023/08/15 12:05:18;;;;;;;10.50;6.43;;;665.70;2432.00;;;;;;4955331;28;20027;-85
2023/08/15 12:07:44;;;;;;;11.60;8.23;;;;;;;;;;4956315;28;20028;-85
2023/08/15 12:10:12;;;;;;;9.20;6.32;;;;;;;;;;4955091;28;20034;-85
2023/08/15 12:12:39;;;;;;;10.13;5.93;;;;;;;;;;4955150;28;20039;-82
2023/08/15 12:15:06;;;;;;;6.57;5.45;;;;;;;;;;4954996;28;20027;-87
2023/08/15 12:17:33;;;;;;;7.55;5.20;;;;;;;;;;4956236;28;20050;-86
2023/08/15 12:19:59;;;;;;;13.23;5.93;;;;;;;;;;4955181;28;20383;-83
2023/08/15 12:22:25;;;;;;;7.75;5.43;;;;;;;;;;4954785;28;20457;-84
2023/08/15 12:24:51;;;;;;;7.35;4.97;;;;;;;;;;4954829;28;20027;-82
2023/08/15 12:27:17;;;;;;;8.82;5.38;;;;;;;;;;4954818;28;20070;-85
2023/08/15 12:29:43;;;;;;;6.88;5.60;;;;;;;;;;4954585;28;20467;-83
2023/08/15 12:32:09;;;;;;;8.75;5.05;;;;;;;;;;4955968;28;20023;-83
2023/08/15 12:34:35;;;;;;;6.88;5.50;;;;;;;;;;4954805;28;20051;-84
2023/08/15 12:37:01;;;;;;;10.10;5.60;;;;;;;;;;4954133;28;20034;-82
2023/08/15 12:39:27;;;;;;;8.18;6.00;;;;;;;;;;4953279;28;20035;-81
2023/08/15 12:41:54;;;;;;;10.18;5.63;;;;;;;;;;4955356;28;20027;-81
2023/08/15 12:44:20;;;;;;;12.80;6.07;;;;;;;;;;4953637;28;20023;-84
2023/08/15 12:46:46;;;;;;;7.95;5.72;;;;;;;;;;4954673;28;20462;-82
2023/08/15 12:49:12;;;;;;;7.90;5.63;;;;;;;;;;4955028;28;20031;-80
2023/08/15 12:51:39;;;;;;;8.40;5.88;;;;;;;;;;4953381;28;20185;-81
2023/08/15 12:54:06;;;;;;;8.18;5.40;;;;;;;;;;4953630;28;20110;-82
2023/08/15 12:56:32;;;;;;;9.95;5.53;;;;;;;;;;4953907;28;20043;-83
2023/08/15 12:58:58;;;;;;;10.85;6.47;;;;;;;;;;4953549;28;20027;-83
2023/08/15 13:01:24;;;;;;;9.77;6.25;;;;;;;;;;4953856;28;20019;-82
2023/08/15 13:03:51;;;;;;;10.07;6.05;;;;;;;;;;4953830;28;20031;-80
2023/08/15 13:06:17;;;;;;;8.85;5.40;;;;;;;;;;4953592;28;20060;-85
2023/08/15 13:08:44;;;;;;;8.93;5.63;;;;;;;;;;4955025;28;20074;-82
2023/08/15 13:11:10;;;;;;;9.43;5.93;;;;;;;;;;4954278;28;20078;-87
2023/08/15 13:13:36;;;;;;;7.70;6.22;;;;;;;;;;4955225;28;20042;-86
2023/08/15 13:16:03;;;;;;;7.13;5.20;;;;;;;;;;4953638;28;20054;-84
2023/08/15 13:18:29;;;;;;;6.25;5.50;;;;;;;;;;4954595;28;20027;-79
2023/08/15 13:20:56;;;;;;;8.20;5.47;;;;;;;;;;4953423;28;20023;-80
2023/08/15 13:23:22;;;;;;;9.00;6.68;;;;;;;;;;4953739;28;20062;-81
2023/08/15 13:25:48;;;;;;;7.70;6.10;;;;;;;;;;4946812;28;20110;-78
2023/08/15 13:28:14;;;;;;;9.65;6.25;;;;;;;;;;4931972;29;20126;-78
2023/08/15 13:30:40;;;;;;;9.80;6.40;;;;;;;;;;4950036;29;20019;-82
2023/08/15 13:33:07;;;;;;;8.80;5.45;;;;;;;;;;4954235;29;20498;-82
2023/08/15 13:35:33;;;;;;;10.07;5.70;;;;;;;;;;4955245;29;20154;-81
2023/08/15 13:37:59;;;;;;;6.85;5.40;;;;;;;;;;4954353;29;20023;-80
2023/08/15 13:40:25;;;;;;;8.95;5.65;;;;;;;;;;4954499;29;20118;-85
2023/08/15 13:42:51;;;;;;;8.57;5.75;;;;;;;;;;4954353;29;20031;-83
2023/08/15 13:45:17;;;;;;;7.90;5.88;;;;;;;;;;4954104;29;20027;-85
2023/08/15 13:47:43;;;;;;;9.85;5.72;;;;;;;;;;4955232;29;20027;-85
2023/08/15 13:50:10;;;;;;;9.93;6.30;;;;;;;;;;4954659;28;20023;-86
2023/08/15 13:52:36;;;;;;;8.77;6.03;;;;;;;;;;4958248;29;20082;-85
2023/08/15 13:55:04;;;;;;;9.95;5.93;;;;;;;;;;4957729;29;20042;-85
2023/08/15 13:57:32;;;;;;;7.05;5.22;;;;;;;;;;4959226;28;20015;-85
2023/08/15 13:59:58;;;;;;;8.13;5.35;;;;;;;;;;4958053;29;20026;-85
2023/08/15 14:02:24;;;;;;;9.95;6.57;;;;;;;;;;4959158;29;20455;-86
2023/08/15 14:04:50;;;;;;;9.68;6.20;;;;;;;;;;4957863;29;20066;-85
2023/08/15 14:07:16;;;;;;;6.80;5.50;;;;;;;;;;4958028;29;20058;-86
2023/08/15 14:09:42;;;;;;;9.40;6.70;;;;;;;;;;4958398;29;20034;-86
2023/08/15 14:12:08;;;;;;;10.35;5.60;;;;;;;;;;4958171;29;20023;-85
2023/08/15 14:14:36;;;;;;;8.18;6.15;;;;;;;;;;4957892;29;20058;-87
2023/08/15 14:17:03;;;;;;;8.55;6.07;;;;;;;;;;4958074;29;20505;-86
2023/08/15 14:19:29;;;;;;;6.85;5.82;;;;;;;;;;4958217;29;20027;-85